Tiempo atmosférico en la estación meteorológica de Pollença, Illes Balears (45 m.)



Fecha
DESCASC
Temp. máxima en grados centígrados (hora)
DESCASC
Temp. mínima en grados centígrados (hora)
DESCASC
Temp. media en grados centígrados
DESCASC
Racha de viento máxima en m/sg (hora)
DESCASC
Velocidad máxima media en intervalos de 10 minutos(hora)
DESCASC
Precipitaciones diarias en mm
DESCASC
Precipitaciones de 00:00 a 06:00 en mm
DESCASC
Precipitaciones de 06:00 a 12:00 en mm
DESCASC
Precipitaciones de 12:00 a 18:00 en mm
DESCASC
Precipitaciones de 18:00 a 24:00 en mm
DESCASC
02-07-2020 30.8 (17:00) 21 (06:30) 25.9 6.67 (15:00) 3.06 (14:30) 0 0 0 0 0
01-07-2020 34.4 (15:50) 19.6 (06:20) 27 7.22 (16:50) 3.89 (13:00) 0 0 0 0 0
30-06-2020 31.8 (15:30) 19.9 (00:00) 25.8 6.67 (14:10) 3.89 (14:10) 0 0 0 0 0
29-06-2020 30.5 (10:40) 21.4 (00:00) 25.9 7.22 (16:00) 3.89 (16:40) 0 0 0 0 0
28-06-2020 30.3 (15:00) 20.2 (00:00) 25.3 5.83 (16:50) 2.78 (13:10) 0 0 0 0 0
27-06-2020 30.2 (15:40) 20.9 (00:00) 25.6 7.22 (14:40) 3.06 (15:00) 0 0 0 0 0
26-06-2020 32.3 (11:20) 17.9 (00:00) 25.1 6.39 (13:30) 3.61 (13:50) 0 0 0 0 0
25-06-2020 31.7 (17:40) 17.6 (00:00) 24.7 7.22 (17:40) 3.61 (14:10) 0 0 0 0 0
24-06-2020 30.8 (15:30) 17.7 (00:00) 24.3 5.28 (14:50) 2.78 (15:40) 0 0 0 0 0
23-06-2020 30 (17:30) 18.5 (00:00) 24.3 5.56 (13:50) 3.89 (14:20) 0 0 0 0 0
22-06-2020 30.1 (10:10) 18.4 (00:00) 24.3 6.67 (11:10) 3.61 (15:10) 0 0 0 0 0
21-06-2020 29.7 (17:20) 17.3 (00:00) 23.5 5.56 (12:10) 3.61 (12:10) 0 0 0 0 0
20-06-2020 28.6 (11:20) 17.4 (00:00) 23 6.67 (14:50) 3.33 (12:20) 0 0 0 0 0
19-06-2020 25.5 (16:10) 18 (00:00) 21.8 6.94 (15:10) 3.33 (14:30) 0 0 0 0 0
18-06-2020 28.4 (11:20) 18.1 (00:00) 23.3 8.61 (13:40) 4.72 (13:40) 0.2 0.2 0 0 0
17-06-2020 26.2 (11:20) 17.3 (00:00) 21.8 6.11 (13:00) 3.61 (13:10) 14.8 0 0 14.8 0
16-06-2020 25.4 (12:00) 17.7 (00:00) 21.6 7.78 (14:50) 4.17 (15:00) 0 0 0 0 0
15-06-2020 27.4 (11:10) 14.8 (00:00) 21.1 6.67 (15:10) 3.61 (12:50) 0 0 0 0 0
14-06-2020 27.3 (17:30) 14.6 (00:00) 20.9 6.11 (20:00) 3.06 (20:30) 0 0 0 0 0
13-06-2020 26.6 (15:50) 15.9 (00:00) 21.3 10.28 (11:00) 5.28 (11:00) 0 0 0 0 0
12-06-2020 27.9 (14:30) 17.6 (00:00) 22.8 13.61 (02:30) 6.39 (11:50) 0 0 0 0 0
11-06-2020 28.2 (15:40) 16.9 (00:00) 22.6 11.11 (13:40) 5.28 (13:30) 0 0 0 0 0
10-06-2020 25.9 (17:00) 12.1 (00:00) 19 6.94 (17:10) 2.78 (15:30) 0 0 0 0 0
09-06-2020 24.3 (16:20) 13.4 (00:00) 18.8 9.44 (15:10) 4.72 (15:10) 0 0 0 0 0
08-06-2020 19.7 (08:50) 14.6 (23:59) 17.2 6.11 (13:30) 2.78 (15:10) 11 10.8 0.2 0 0
07-06-2020 24.5 (10:40) 17.4 (00:00) 20.9 8.89 (14:20) 4.17 (12:20) 32.2 0 1.4 29.8 1
06-06-2020 30.9 (17:10) 13.7 (00:00) 22.3 10.28 (18:00) 6.11 (15:30) 0 0 0 0 0
05-06-2020 24.6 (16:20) 16.9 (00:00) 20.8 13.33 (09:50) 7.5 (09:50) 0 0 0 0 0

Gráficas

Temp. máximas Temp. mínimas Temp. medias Precipitaciones Rachas de viento máximas Velocidades máximas media en intervalos de 10 minutos

Datos horarios

Fecha y hora oficial Temperatura (ºC) Velocidad del viento (km/h) Dirección del viento Racha (km/h) Dirección de racha Precipitación (mm) Presión (hPa) Tendencia (hPa) Humedad (%)
2020-07-04 23:00:00 22.1 2 Oeste 5 Sudoeste 0 -- -- 83
2020-07-04 22:00:00 23.6 2 Sudoeste 11 Oeste 0 -- -- 78
2020-07-04 21:00:00 24.8 0 Calma 15 Sur 0 -- -- 72
2020-07-04 20:00:00 26.2 4 Nordeste 13 Nordeste 0 -- -- 68
2020-07-04 19:00:00 26.9 5 Noroeste 18 Noroeste 0 -- -- 63
2020-07-04 18:00:00 27.6 6 Noroeste 22 Norte 0 -- -- 61
2020-07-04 17:00:00 26.8 12 Noroeste 22 Norte 0 -- -- 62
2020-07-04 16:00:00 28.1 11 Nordeste 20 Este 0 -- -- 59
2020-07-04 15:00:00 28 8 Norte 22 Norte 0 -- -- 57
2020-07-04 14:00:00 28 13 Nordeste 27 Este 0 -- -- 59
2020-07-04 13:00:00 29.1 10 Norte 19 Norte 0 -- -- 51
2020-07-04 12:00:00 27.9 10 Noroeste 23 Norte 0 -- -- 55
2020-07-04 11:00:00 27.3 3 Sur 10 Oeste 0 -- -- 58
2020-07-04 10:00:00 26.4 3 Norte 9 Norte 0 -- -- 59
2020-07-04 09:00:00 24.9 5 Nordeste 10 Nordeste 0 -- -- 62
2020-07-04 08:00:00 21 3 Norte 6 Norte 0 -- -- 77
2020-07-04 07:00:00 20.9 3 Norte 12 Sudoeste 0 -- -- 77
2020-07-04 06:00:00 21.6 5 Sur 12 Sur 0 -- -- 70
2020-07-04 05:00:00 20.5 0 Calma 4 Norte 0 -- -- 79
2020-07-04 04:00:00 20.7 0 Calma 4 Sur 0 -- -- 76
2020-07-04 03:00:00 21.2 3 Oeste 8 Oeste 0 -- -- 73
2020-07-04 02:00:00 19.1 0 Calma 3 Oeste 0 -- -- 82
2020-07-04 01:00:00 19.3 0 Calma 4 Oeste 0 -- -- 80
2020-07-04 00:00:00 19.9 0 Calma 5 Oeste 0 -- -- 78
2020-07-03 23:00:00 20.4 0 Calma 4 Nordeste 0 -- -- 75
2020-07-03 22:00:00 21.4 0 Calma 4 Sudeste 0 -- -- 71
2020-07-03 21:00:00 22.9 3 Este 10 Este 0 -- -- 64
2020-07-03 20:00:00 23.8 6 Nordeste 18 Sudeste 0 -- -- 60
2020-07-03 19:00:00 24.2 8 Este 20 Este 0 -- -- 58
2020-07-03 18:00:00 25.1 8 Este 21 Este 0 -- -- 57
2020-07-03 17:00:00 25.7 6 Nordeste 23 Este 0 -- -- 56
2020-07-03 16:00:00 24.9 10 Este 24 Este 0 -- -- 58
2020-07-03 15:00:00 25.6 11 Este 23 Sudeste 0 -- -- 58
2020-07-03 14:00:00 25.3 7 Nordeste 24 Norte 0 -- -- 58
2020-07-03 13:00:00 25.4 8 Nordeste 21 Nordeste 0 -- -- 60
2020-07-03 12:00:00 24.1 7 Nordeste 21 Norte 0 -- -- 64
2020-07-03 11:00:00 24.7 10 Nordeste 24 Este 0 -- -- 62
2020-07-03 10:00:00 23.8 10 Nordeste 28 Este 0 -- -- 64
2020-07-03 09:00:00 25.3 7 Nordeste 31 Norte 0 -- -- 60
2020-07-03 08:00:00 24.8 7 Nordeste 23 Nordeste 0 -- -- 62
2020-07-03 07:00:00 23.2 7 Nordeste 18 Sudeste 0 -- -- 65
2020-07-03 06:00:00 22.9 5 Este 17 Este 0 -- -- 69
2020-07-03 05:00:00 23.2 5 Este 14 Este 0 -- -- 74
2020-07-03 04:00:00 23.4 6 Este 16 Este 0 -- -- 75
2020-07-03 03:00:00 23.8 5 Nordeste 12 Sudeste 0 -- -- 79
2020-07-03 02:00:00 24.2 7 Este 18 Este 0 -- -- 79
2020-07-03 01:00:00 24.5 6 Este 19 Este 0 -- -- 75
2020-07-03 00:00:00 24.6 6 Este 23 Nordeste 0 -- -- 81
2020-07-02 23:00:00 24.6 10 Este 20 Este 0 -- -- 84
2020-07-02 22:00:00 24.8 4 Este 15 Este 0 -- -- 79
2020-07-02 21:00:00 25.6 3 Este 15 Nordeste 0 -- -- 79
2020-07-02 20:00:00 27 7 Este 18 Norte 0 -- -- 70
2020-07-02 19:00:00 28.1 6 Nordeste 19 Este 0 -- -- 65
2020-07-02 18:00:00 29.8 10 Este 20 Sudeste 0 -- -- 60
2020-07-02 17:00:00 30.8 6 Este 21 Este 0 -- -- 54
2020-07-02 16:00:00 30 9 Este 22 Sudeste 0 -- -- 58
2020-07-02 15:00:00 29.5 11 Este 24 Este 0 -- -- 58
2020-07-02 14:00:00 29.6 10 Este 20 Este 0 -- -- 56
2020-07-02 13:00:00 30 8 Este 20 Sudeste 0 -- -- 55
2020-07-02 12:00:00 29.2 9 Este 22 Este 0 -- -- 61
2020-07-02 11:00:00 28.6 7 Nordeste 17 Sudeste 0 -- -- 64
2020-07-02 10:00:00 28.6 6 Este 15 Este 0 -- -- 64
2020-07-02 09:00:00 27.9 5 Este 10 Este 0 -- -- 68
2020-07-02 08:00:00 25.8 5 Nordeste 9 Norte 0 -- -- 79
2020-07-02 07:00:00 21.8 0 Calma 5 Nordeste 0 -- -- 92
2020-07-02 06:00:00 21.5 0 Calma 4 Nordeste 0 -- -- 88
2020-07-02 05:00:00 21.6 2 Norte 8 Oeste 0 -- -- 90
2020-07-02 04:00:00 21.7 0 Calma 4 Noroeste 0 -- -- 88
2020-07-02 03:00:00 22.4 0 Calma 4 Nordeste 0 -- -- 89
2020-07-02 02:00:00 23.7 2 Nordeste 8 Noroeste 0 -- -- 85
2020-07-02 01:00:00 23.7 3 Oeste 6 Oeste 0 -- -- 81
2020-07-02 00:00:00 24 2 Norte 6 Noroeste 0 -- -- 73
2020-07-01 23:00:00 26.1 3 Noroeste 12 Oeste 0 -- -- 63
2020-07-01 22:00:00 27.4 7 Oeste 13 Sudoeste 0 -- -- 58
2020-07-01 21:00:00 28.7 6 Oeste 18 Oeste 0 -- -- 51
2020-07-01 20:00:00 30.4 10 Noroeste 25 Noroeste 0 -- -- 46
2020-07-01 19:00:00 31.5 10 Noroeste 22 Noroeste 0 -- -- 43
2020-07-01 18:00:00 32 10 Noroeste 24 Norte 0 -- -- 45
2020-07-01 17:00:00 32.9 11 Noroeste 26 Noroeste 0 -- -- 45
2020-07-01 16:00:00 34.2 7 Nordeste 17 Sur 0 -- -- 45
2020-07-01 15:00:00 33.8 10 Sur 24 Sudeste 0 -- -- 48
2020-07-01 14:00:00 33 6 Norte 23 Nordeste 0 -- -- 38
2020-07-01 13:00:00 30.2 14 Nordeste 24 Nordeste 0 -- -- 59
2020-07-01 12:00:00 30.8 7 Nordeste 18 Nordeste 0 -- -- 56
2020-07-01 11:00:00 30 6 Este 18 Este 0 -- -- 59
2020-07-01 10:00:00 30.6 8 Sudeste 18 Sur 0 -- -- 51
2020-07-01 09:00:00 28 4 Sudeste 10 Sudeste 0 -- -- 66
2020-07-01 08:00:00 24.3 0 Calma 4 Nordeste 0 -- -- 77
2020-07-01 07:00:00 20.1 0 Calma 4 Norte 0 -- -- 90
2020-07-01 06:00:00 19.8 0 Calma 4 Nordeste 0 -- -- 88
2020-07-01 05:00:00 20 0 Calma 3 Nordeste 0 -- -- 88
2020-07-01 04:00:00 20.6 0 Calma 4 Norte 0 -- -- 85
2020-07-01 03:00:00 21.6 2 Sudeste 7 Oeste 0 -- -- 80
2020-07-01 02:00:00 24.4 4 Este 17 Oeste 0 -- -- 64
2020-07-01 01:00:00 22.4 4 Sudeste 10 Este 0 -- -- 76
2020-07-01 00:00:00 23.1 0 Calma 6 Nordeste 0 -- -- 76
2020-06-30 23:00:00 24 3 Nordeste 11 Sudeste 0 -- -- 77
2020-06-30 22:00:00 24.6 0 Calma 5 Norte 0 -- -- 83
2020-06-30 21:00:00 25.6 4 Sudeste 11 Este 0 -- -- 79
2020-06-30 20:00:00 27.1 7 Este 14 Sudeste 0 -- -- 72
2020-06-30 19:00:00 29 7 Este 18 Norte 0 -- -- 65
2020-06-30 18:00:00 30.1 8 Norte 18 Nordeste 0 -- -- 61
2020-06-30 17:00:00 31.4 9 Este 22 Este 0 -- -- 57
2020-06-30 16:00:00 31.3 10 Nordeste 22 Este 0 -- -- 55
2020-06-30 15:00:00 31.5 11 Nordeste 24 Nordeste 0 -- -- 54
2020-06-30 14:00:00 30.1 13 Nordeste 23 Este 0 -- -- 61
2020-06-30 13:00:00 29.9 9 Este 19 Este 0 -- -- 62
2020-06-30 12:00:00 29.4 9 Nordeste 20 Sudeste 0 -- -- 60
2020-06-30 11:00:00 28.9 8 Este 17 Sur 0 -- -- 65
2020-06-30 10:00:00 28.2 5 Sudeste 12 Este 0 -- -- 68
2020-06-30 09:00:00 27.1 5 Este 10 Este 0 -- -- 72
2020-06-30 08:00:00 24.9 0 Calma 3 Nordeste 0 -- -- 70
2020-06-30 07:00:00 20.2 0 Calma 3 Norte 0 -- -- 91
2020-06-30 06:00:00 20 0 Calma 4 Norte 0 -- -- 92
2020-06-30 05:00:00 19.9 0 Calma 4 Norte 0 -- -- 89
2020-06-30 04:00:00 20.7 2 Norte 5 Sudeste 0 -- -- 86
2020-06-30 03:00:00 21.2 3 Norte 5 Norte 0 -- -- 84
2020-06-30 02:00:00 21.9 2 Nordeste 5 Oeste 0 -- -- 84
2020-06-30 01:00:00 22.5 0 Calma 4 Norte 0 -- -- 83
2020-06-30 00:00:00 23.3 2 Norte 6 Este 0 -- -- 79
2020-06-29 23:00:00 24.2 0 Calma 6 Este 0 -- -- 83
2020-06-29 22:00:00 25 2 Norte 6 Nordeste 0 -- -- 81
2020-06-29 21:00:00 25.7 5 Nordeste 11 Norte 0 -- -- 78
2020-06-29 20:00:00 27.3 6 Norte 12 Norte 0 -- -- 69
2020-06-29 19:00:00 28.3 8 Norte 15 Este 0 -- -- 64
2020-06-29 18:00:00 28.9 8 Este 19 Este 0 -- -- 62
2020-06-29 17:00:00 28.2 12 Nordeste 24 Este 0 -- -- 64
2020-06-29 16:00:00 28.9 12 Este 26 Este 0 -- -- 61
2020-06-29 15:00:00 29.2 10 Este 23 Este 0 -- -- 60
2020-06-29 14:00:00 29.5 11 Este 20 Nordeste 0 -- -- 61
2020-06-29 13:00:00 30 9 Este 18 Sudeste 0 -- -- 63
2020-06-29 12:00:00 30.3 7 Nordeste 19 Este 0 -- -- 60
2020-06-29 11:00:00 30.2 7 Este 14 Este 0 -- -- 61
2020-06-29 10:00:00 29.9 4 Este 10 Este 0 -- -- 60
2020-06-29 09:00:00 27.3 0 Calma 5 Sudeste 0 -- -- 71
2020-06-29 08:00:00 25.8 0 Calma 4 Sudeste 0 -- -- 77
2020-06-29 07:00:00 21.7 0 Calma 3 Norte 0 -- -- 93
2020-06-29 06:00:00 21.9 0 Calma 6 Oeste 0 -- -- 92
2020-06-29 05:00:00 23 4 Sudoeste 10 Oeste 0 -- -- 87
2020-06-29 04:00:00 22.6 4 Sudoeste 9 Oeste 0 -- -- 88
2020-06-29 03:00:00 21.4 0 Calma 4 Nordeste 0 -- -- 90
2020-06-29 02:00:00 21.7 2 Norte 4 Nordeste 0 -- -- 89
2020-06-29 01:00:00 22.3 0 Calma 3 Nordeste 0 -- -- 87
2020-06-29 00:00:00 22.9 0 Calma 3 Noroeste 0 -- -- 86
2020-06-28 23:00:00 23.6 0 Calma 5 Oeste 0 -- -- 83
2020-06-28 22:00:00 24.3 0 Calma 5 Sudeste 0 -- -- 83
2020-06-28 21:00:00 25.4 3 Este 10 Este 0 -- -- 79
2020-06-28 20:00:00 26.5 6 Sudeste 14 Nordeste 0 -- -- 73
2020-06-28 19:00:00 27.6 6 Este 19 Este 0 -- -- 70
2020-06-28 18:00:00 28.8 7 Este 18 Este 0 -- -- 65
2020-06-28 17:00:00 29.3 9 Este 21 Este 0 -- -- 63
2020-06-28 16:00:00 29.8 9 Este 20 Sudeste 0 -- -- 60
2020-06-28 15:00:00 30.3 9 Este 20 Este 0 -- -- 57
2020-06-28 14:00:00 29.4 8 Este 19 Sudeste 0 -- -- 60
2020-06-28 13:00:00 28.8 9 Este 18 Este 0 -- -- 63
2020-06-28 12:00:00 28.6 8 Este 17 Sudeste 0 -- -- 65
2020-06-28 11:00:00 28.5 8 Norte 17 Norte 0 -- -- 61
2020-06-28 10:00:00 26.4 4 Norte 15 Noroeste 0 -- -- 72
2020-06-28 09:00:00 26.5 6 Norte 14 Norte 0 -- -- 68
2020-06-28 08:00:00 24.8 2 Norte 12 Norte 0 -- -- 78
2020-06-28 07:00:00 21.5 0 Calma 5 Oeste 0 -- -- 94
2020-06-28 06:00:00 20.4 0 Calma 4 Sur 0 -- -- 95
2020-06-28 05:00:00 20.5 2 Este 5 Sudeste 0 -- -- 94
2020-06-28 04:00:00 21 0 Calma 13 Sudeste 0 -- -- 92
2020-06-28 03:00:00 22.7 4 Sur 17 Sudeste 0 -- -- 88
2020-06-28 02:00:00 21.3 0 Calma 3 Sudeste 0 -- -- 92
2020-06-28 01:00:00 22 0 Calma 2 Sur 0 -- -- 90
2020-06-28 00:00:00 22.9 0 Calma 2 Nordeste 0 -- -- 88
2020-06-27 23:00:00 23.1 0 Calma 4 Este 0 -- -- 86
2020-06-27 22:00:00 23.9 2 Este 7 Este 0 -- -- 82
2020-06-27 21:00:00 24.8 3 Este 16 Nordeste 0 -- -- 78
2020-06-27 20:00:00 25.7 7 Norte 14 Nordeste 0 -- -- 74
2020-06-27 19:00:00 26.9 8 Nordeste 18 Norte 0 -- -- 69
2020-06-27 18:00:00 29.1 9 Noroeste 21 Oeste 0 -- -- 62
2020-06-27 17:00:00 29.2 10 Noroeste 20 Noroeste 0 -- -- 60
2020-06-27 16:00:00 28.8 6 Noroeste 21 Nordeste 0 -- -- 60
2020-06-27 15:00:00 29.9 11 Nordeste 26 Sudeste 0 -- -- 54
2020-06-27 14:00:00 29.1 6 Nordeste 19 Este 0 -- -- 57
2020-06-27 13:00:00 28.2 9 Este 19 Sudeste 0 -- -- 64
2020-06-27 12:00:00 27.3 8 Oeste 15 Norte 0 -- -- 62
2020-06-27 11:00:00 27.3 5 Norte 12 Norte 0 -- -- 62
2020-06-27 10:00:00 25.3 3 Sudeste 5 Sudeste 0 -- -- 74
2020-06-27 09:00:00 23.9 0 Calma 3 Este 0 -- -- 80
2020-06-27 08:00:00 23.2 0 Calma 6 Sudoeste 0 -- -- 81
2020-06-27 07:00:00 22.3 0 Calma 5 Oeste 0 -- -- 85
2020-06-27 06:00:00 21 0 Calma 2 Oeste 0 -- -- 90
2020-06-27 05:00:00 21.4 0 Calma 4 Este 0 -- -- 87
2020-06-27 04:00:00 22.7 3 Sudeste 6 Sudeste 0 -- -- 83
2020-06-27 03:00:00 22.9 3 Este 17 Sudeste 0 -- -- 81
2020-06-27 02:00:00 22.9 3 Norte 21 Sudeste 0 -- -- 82
2020-06-27 01:00:00 22.9 5 Nordeste 13 Este 0 -- -- 81
2020-06-27 00:00:00 23.1 4 Nordeste 21 Este 0 -- -- 79
2020-06-26 23:00:00 23.6 6 Sudeste 13 Oeste 0 -- -- 71
2020-06-26 22:00:00 23.3 2 Sudeste 10 Nordeste 0 -- -- 82
2020-06-26 21:00:00 24.3 7 Nordeste 15 Nordeste 0 -- -- 78
2020-06-26 20:00:00 26 9 Nordeste 18 Nordeste 0 -- -- 66
2020-06-26 19:00:00 28.8 10 Nordeste 16 Nordeste 0 -- -- 51
2020-06-26 18:00:00 30.4 8 Nordeste 18 Nordeste 0 -- -- 45
2020-06-26 17:00:00 29.7 12 Nordeste 21 Nordeste 0 -- -- 53
2020-06-26 16:00:00 30.1 12 Nordeste 22 Este 0 -- -- 53
2020-06-26 15:00:00 30.6 11 Nordeste 22 Nordeste 0 -- -- 44
2020-06-26 14:00:00 31.6 11 Nordeste 23 Este 0 -- -- 41
2020-06-26 13:00:00 31.3 10 Este 21 Nordeste 0 -- -- 39
2020-06-26 12:00:00 31.2 10 Nordeste 19 Sudeste 0 -- -- 41
2020-06-26 11:00:00 31.3 6 Este 15 Sur 0 -- -- 33
2020-06-26 10:00:00 29.6 6 Sudeste 14 Este 0 -- -- 46
2020-06-26 09:00:00 28.8 0 Calma 4 Norte 0 -- -- 43
2020-06-26 08:00:00 23.2 2 Nordeste 5 Norte 0 -- -- 58
2020-06-26 07:00:00 18.4 0 Calma 4 Norte 0 -- -- 69
2020-06-26 06:00:00 18 2 Norte 4 Nordeste 0 -- -- 71
2020-06-26 05:00:00 18.2 0 Calma 3 Nordeste 0 -- -- 74
2020-06-26 04:00:00 18.6 0 Calma 3 Nordeste 0 -- -- 74
2020-06-26 03:00:00 19.1 0 Calma 6 Sudeste 0 -- -- 78
2020-06-26 02:00:00 19.8 0 Calma 3 Norte 0 -- -- 78
2020-06-26 01:00:00 20.5 0 Calma 4 Oeste 0 -- -- 79
2020-06-26 00:00:00 21.3 0 Calma 4 Oeste 0 -- -- 78
2020-06-25 23:00:00 22.1 2 Nordeste 6 Sudeste 0 -- -- 76
2020-06-25 22:00:00 24.1 3 Este 9 Sudeste 0 -- -- 66
2020-06-25 21:00:00 26.7 3 Este 14 Sudeste 0 -- -- 45
2020-06-25 20:00:00 28.9 8 Sudeste 19 Sudeste 0 -- -- 40
2020-06-25 19:00:00 30.3 11 Sudeste 24 Sudeste 0 -- -- 36
2020-06-25 18:00:00 31.3 9 Sudeste 26 Sudeste 0 -- -- 39
2020-06-25 17:00:00 30.8 12 Nordeste 21 Nordeste 0 -- -- 45
2020-06-25 16:00:00 30.1 13 Nordeste 21 Nordeste 0 -- -- 45
2020-06-25 15:00:00 30.6 11 Nordeste 21 Nordeste 0 -- -- 45
2020-06-25 14:00:00 30.4 9 Nordeste 19 Este 0 -- -- 47
2020-06-25 13:00:00 31.1 10 Nordeste 21 Este 0 -- -- 41
2020-06-25 12:00:00 31 7 Este 17 Este 0 -- -- 37
2020-06-25 11:00:00 30.7 5 Sudeste 12 Sudeste 0 -- -- 41
2020-06-25 10:00:00 30.8 4 Sur 9 Sudeste 0 -- -- 39
2020-06-25 09:00:00 29.2 0 Calma 4 Nordeste 0 -- -- 44
2020-06-25 08:00:00 23.7 0 Calma 4 Nordeste 0 -- -- 56
2020-06-25 07:00:00 18.5 0 Calma 4 Norte 0 -- -- 70
2020-06-25 06:00:00 17.6 0 Calma 3 Norte 0 -- -- 78
2020-06-25 05:00:00 17.9 2 Norte 2 Norte 0 -- -- 77
2020-06-25 04:00:00 18.8 0 Calma 5 Nordeste 0 -- -- 80
2020-06-25 03:00:00 19 0 Calma 4 Sudeste 0 -- -- 83
2020-06-25 02:00:00 19.6 0 Calma 4 Sur 0 -- -- 85
2020-06-25 01:00:00 20.2 0 Calma 4 Sudoeste 0 -- -- 80
2020-06-25 00:00:00 21 0 Calma 4 Nordeste 0 -- -- 80
2020-06-24 23:00:00 21.8 0 Calma 3 Nordeste 0 -- -- 73
2020-06-24 22:00:00 22.7 0 Calma 4 Sudeste 0 -- -- 72
2020-06-24 21:00:00 24.5 2 Este 10 Este 0 -- -- 67
2020-06-24 20:00:00 26.1 5 Este 11 Este 0 -- -- 57
2020-06-24 19:00:00 27.1 6 Este 18 Este 0 -- -- 58
2020-06-24 18:00:00 27.7 9 Este 18 Este 0 -- -- 61
2020-06-24 17:00:00 29.7 9 Este 18 Sudeste 0 -- -- 51
2020-06-24 16:00:00 30.1 8 Este 17 Este 0 -- -- 46
2020-06-24 15:00:00 30.6 8 Este 19 Este 0 -- -- 39
2020-06-24 14:00:00 30.2 7 Nordeste 17 Nordeste 0 -- -- 37
2020-06-24 13:00:00 30 8 Este 17 Sudeste 0 -- -- 42
2020-06-24 12:00:00 28.7 6 Este 14 Sudeste 0 -- -- 48
2020-06-24 11:00:00 27.8 6 Este 14 Nordeste 0 -- -- 54
2020-06-24 10:00:00 28.9 4 Sudeste 11 Sudeste 0 -- -- 46
2020-06-24 09:00:00 27.5 4 Oeste 9 Noroeste 0 -- -- 52
2020-06-24 08:00:00 23.4 0 Calma 4 Nordeste 0 -- -- 73
2020-06-24 07:00:00 17.8 0 Calma -- -- 0 -- -- 93
2020-06-24 06:00:00 17.9 0 Calma -- -- 0 -- -- 93
2020-06-24 05:00:00 18.4 0 Calma 2 Norte 0 -- -- 94
2020-06-24 04:00:00 18.9 0 Calma 4 Sudeste 0 -- -- 93
2020-06-24 03:00:00 19.6 0 Calma 3 Nordeste 0 -- -- 93
2020-06-24 02:00:00 20.1 0 Calma 4 Norte 0 -- -- 91
2020-06-24 01:00:00 20.6 0 Calma 3 Norte 0 -- -- 91
2020-06-24 00:00:00 20.9 0 Calma 3 Sudoeste 0 -- -- 89
2020-06-23 23:00:00 21.7 0 Calma 2 Nordeste 0 -- -- 86
2020-06-23 22:00:00 22.7 0 Calma 5 Este 0 -- -- 82
2020-06-23 21:00:00 23.9 3 Este 14 Nordeste 0 -- -- 76
2020-06-23 20:00:00 25.6 6 Este 14 Este 0 -- -- 67
2020-06-23 19:00:00 27.2 6 Este 14 Este 0 -- -- 56
2020-06-23 18:00:00 28.3 7 Nordeste 16 Este 0 -- -- 61
2020-06-23 17:00:00 28.9 8 Nordeste 17 Nordeste 0 -- -- 57
2020-06-23 16:00:00 28.9 8 Nordeste 19 Este 0 -- -- 57
2020-06-23 15:00:00 28.9 10 Nordeste 20 Nordeste 0 -- -- 55
2020-06-23 14:00:00 29.3 12 Norte 20 Norte 0 -- -- 53
2020-06-23 13:00:00 29 8 Nordeste 18 Sudeste 0 -- -- 46
2020-06-23 12:00:00 29.2 6 Este 17 Este 0 -- -- 47
2020-06-23 11:00:00 29.1 4 Este 15 Sudeste 0 -- -- 47
2020-06-23 10:00:00 28.6 4 Noroeste 8 Sur 0 -- -- 51
2020-06-23 09:00:00 27.1 3 Este 5 Nordeste 0 -- -- 59
2020-06-23 08:00:00 24.8 2 Este 4 Nordeste 0 -- -- 70
2020-06-23 07:00:00 19.4 0 Calma 10 Oeste 0 -- -- 86
2020-06-23 06:00:00 20.6 5 Oeste 14 Oeste 0 -- -- 80
2020-06-23 05:00:00 18.7 0 Calma 8 Sudeste 0 -- -- 89
2020-06-23 04:00:00 19.5 0 Calma 7 Oeste 0 -- -- 86
2020-06-23 03:00:00 19.7 0 Calma 6 Sudoeste 0 -- -- 90
2020-06-23 02:00:00 20 3 Oeste 6 Sudoeste 0 -- -- 90
2020-06-23 01:00:00 20.2 0 Calma 5 Sudoeste 0 -- -- 88
2020-06-23 00:00:00 20.8 0 Calma -- -- 0 -- -- 86
2020-06-22 23:00:00 21.6 0 Calma 5 Este 0 -- -- 85
2020-06-22 22:00:00 22.6 2 Este 5 Este 0 -- -- 80
2020-06-22 21:00:00 23.7 3 Este 12 Este 0 -- -- 74
2020-06-22 20:00:00 25.1 5 Este 15 Sudeste 0 -- -- 67
2020-06-22 19:00:00 25.8 9 Este 23 Este 0 -- -- 67
2020-06-22 18:00:00 29 8 Sudeste 22 Sudeste 0 -- -- 45
2020-06-22 17:00:00 28.7 7 Este 22 Nordeste 0 -- -- 47
2020-06-22 16:00:00 28.7 12 Norte 24 Norte 0 -- -- 44
2020-06-22 15:00:00 29 10 Norte 22 Norte 0 -- -- 44
2020-06-22 14:00:00 28.5 9 Norte 22 Noroeste 0 -- -- 47
2020-06-22 13:00:00 29.3 10 Norte 21 Este 0 -- -- 43
2020-06-22 12:00:00 28 10 Este 24 Nordeste 0 -- -- 47
2020-06-22 11:00:00 29.4 6 Este 17 Sudeste 0 -- -- 44
2020-06-22 10:00:00 29.7 4 Sudeste 11 Sur 0 -- -- 43
2020-06-22 09:00:00 28.7 0 Calma 5 Este 0 -- -- 54
2020-06-22 08:00:00 24 2 Nordeste 5 Nordeste 0 -- -- 70
2020-06-22 07:00:00 18.5 0 Calma 3 Norte 0 -- -- 92
2020-06-22 06:00:00 18.6 0 Calma 4 Nordeste 0 -- -- 91
2020-06-22 05:00:00 19.3 0 Calma 6 Sudoeste 0 -- -- 90
2020-06-22 04:00:00 19.7 0 Calma 12 Sudoeste 0 -- -- 87
2020-06-22 03:00:00 21.3 6 Oeste 14 Oeste 0 -- -- 80
2020-06-22 02:00:00 19.9 0 Calma 3 Nordeste 0 -- -- 88
2020-06-22 01:00:00 20.5 0 Calma -- -- 0 -- -- 86
2020-06-22 00:00:00 21.1 0 Calma 4 Sur 0 -- -- 84
2020-06-21 23:00:00 22.3 3 Norte 8 Norte 0 -- -- 78
2020-06-21 22:00:00 22.5 0 Calma 5 Este 0 -- -- 77
2020-06-21 21:00:00 24.5 3 Nordeste 9 Sudeste 0 -- -- 67
2020-06-21 20:00:00 27 4 Sudeste 11 Sudeste 0 -- -- 58
2020-06-21 19:00:00 27.1 6 Sudeste 15 Este 0 -- -- 58
2020-06-21 18:00:00 28.6 7 Este 17 Este 0 -- -- 53
2020-06-21 17:00:00 29.6 6 Este 19 Este 0 -- -- 49
2020-06-21 16:00:00 29.3 8 Este 18 Este 0 -- -- 48
2020-06-21 15:00:00 28.7 7 Este 18 Nordeste 0 -- -- 48
2020-06-21 14:00:00 27.9 7 Este 18 Sudeste 0 -- -- 47
2020-06-21 13:00:00 27.7 9 Nordeste 20 Este 0 -- -- 45
2020-06-21 12:00:00 28.1 8 Este 18 Nordeste 0 -- -- 44
2020-06-21 11:00:00 28.3 7 Nordeste 14 Nordeste 0 -- -- 45
2020-06-21 10:00:00 28.3 3 Nordeste 6 Este 0 -- -- 48
2020-06-21 09:00:00 27.3 0 Calma 4 Sur 0 -- -- 61
2020-06-21 08:00:00 22.6 0 Calma 5 Nordeste 0 -- -- 77
2020-06-21 07:00:00 17.7 2 Norte 5 Nordeste 0 -- -- 96
2020-06-21 06:00:00 17.7 3 Norte 5 Oeste 0 -- -- 96
2020-06-21 05:00:00 17.6 0 Calma 4 Norte 0 -- -- 95
2020-06-21 04:00:00 18.3 3 Nordeste 5 Norte 0 -- -- 94
2020-06-21 03:00:00 19.1 3 Oeste 7 Sudoeste 0 -- -- 93
2020-06-21 02:00:00 19 0 Calma 4 Nordeste 0 -- -- 93
2020-06-21 01:00:00 19.5 0 Calma 4 Norte 0 -- -- 92
2020-06-21 00:00:00 20 0 Calma 4 Norte 0 -- -- 90
2020-06-20 23:00:00 20.6 0 Calma 5 Sudoeste 0 -- -- 88
2020-06-20 22:00:00 21.9 2 Noroeste 7 Norte 0 -- -- 83
2020-06-20 21:00:00 22.8 6 Nordeste 8 Nordeste 0 -- -- 78
2020-06-20 20:00:00 24.5 4 Sudeste 13 Nordeste 0 -- -- 72
2020-06-20 19:00:00 25 6 Este 14 Este 0 -- -- 69
2020-06-20 18:00:00 25.7 5 Norte 19 Oeste 0 -- -- 66
2020-06-20 17:00:00 26.4 6 Norte 12 Oeste 0 -- -- 63
2020-06-20 16:00:00 26.4 4 Norte 20 Sudeste 0 -- -- 64
2020-06-20 15:00:00 27.8 9 Este 24 Este 0 -- -- 62
2020-06-20 14:00:00 27.5 9 Nordeste 16 Norte 0 -- -- 55
2020-06-20 13:00:00 27.3 8 Nordeste 20 Norte 0 -- -- 59
2020-06-20 12:00:00 27.3 7 Nordeste 16 Este 0 -- -- 56
2020-06-20 11:00:00 28.4 4 Sudeste 11 Sudeste 0 -- -- 54
2020-06-20 10:00:00 26.3 5 Este 12 Sudeste 0 -- -- 59
2020-06-20 09:00:00 25.3 3 Sudeste 6 Este 0 -- -- 67
2020-06-20 08:00:00 22.4 4 Sudeste 6 Sudeste 0 -- -- 77
2020-06-20 07:00:00 17.5 0 Calma 4 Norte 0 -- -- 95
2020-06-20 06:00:00 17.4 0 Calma 5 Sudoeste 0 -- -- 94
2020-06-20 05:00:00 17.9 0 Calma 6 Sur 0 -- -- 93
2020-06-20 04:00:00 18.1 0 Calma 3 Oeste 0 -- -- 92
2020-06-20 03:00:00 18.4 0 Calma 4 Nordeste 0 -- -- 90
2020-06-20 02:00:00 19.5 0 Calma 3 Nordeste 0 -- -- 85
2020-06-20 01:00:00 19.6 0 Calma 3 Norte 0 -- -- 87
2020-06-20 00:00:00 19.5 0 Calma 3 Sur 0 -- -- 86
2020-06-19 23:00:00 20.7 0 Calma 3 Nordeste 0 -- -- 78
2020-06-19 22:00:00 21.3 2 Sur 5 Sur 0 -- -- 74
2020-06-19 21:00:00 22 3 Este 7 Este 0 -- -- 69
2020-06-19 20:00:00 23.3 4 Este 11 Este 0 -- -- 63
2020-06-19 19:00:00 24.3 5 Este 13 Este 0 -- -- 57
2020-06-19 18:00:00 24.4 7 Este 16 Nordeste 0 -- -- 55
2020-06-19 17:00:00 25 8 Nordeste 17 Nordeste 0 -- -- 54
2020-06-19 16:00:00 25.3 9 Este 25 Sudeste 0 -- -- 53
2020-06-19 15:00:00 24.5 10 Este 24 Este 0 -- -- 57
2020-06-19 14:00:00 24.6 10 Este 21 Nordeste 0 -- -- 62
2020-06-19 13:00:00 23.9 8 Este 18 Este 0 -- -- 63
2020-06-19 12:00:00 23.4 8 Nordeste 18 Este 0 -- -- 60
2020-06-19 11:00:00 23 5 Este 12 Este 0 -- -- 63
2020-06-19 10:00:00 22.1 2 Este 12 Norte 0 -- -- 71
2020-06-19 09:00:00 21.5 5 Norte 11 Norte 0 -- -- 76
2020-06-19 08:00:00 21.6 0 Calma 3 Sudeste 0 -- -- 85
2020-06-19 07:00:00 19 0 Calma 5 Sudoeste 0 -- -- 95
2020-06-19 06:00:00 18.2 0 Calma 4 Norte 0 -- -- 96
2020-06-19 05:00:00 18.4 0 Calma 4 Oeste 0 -- -- 95
2020-06-19 04:00:00 18.1 0 Calma 6 Oeste 0 -- -- 94
2020-06-19 03:00:00 18.8 2 Nordeste 5 Nordeste 0 -- -- 93
2020-06-19 02:00:00 19.2 3 Este 9 Sudeste 0 -- -- 91
2020-06-19 01:00:00 19.1 2 Noroeste 5 Norte 0 -- -- 92
2020-06-19 00:00:00 19.5 0 Calma 5 Oeste 0 -- -- 92
2020-06-18 23:00:00 19.7 0 Calma -- -- 0 -- -- 90
2020-06-18 22:00:00 20.9 0 Calma 8 Oeste 0 -- -- 85
2020-06-18 21:00:00 21.8 0 Calma 12 Este 0 -- -- 80
2020-06-18 20:00:00 22.6 8 Nordeste 16 Este 0 -- -- 74
2020-06-18 19:00:00 23.1 6 Nordeste 14 Nordeste 0 -- -- 70
2020-06-18 18:00:00 23.6 9 Nordeste 22 Este 0 -- -- 67
2020-06-18 17:00:00 23.3 11 Nordeste 27 Nordeste 0 -- -- 70
2020-06-18 16:00:00 21.8 13 Este 27 Nordeste 0 -- -- 72
2020-06-18 15:00:00 22.9 11 Este 27 Nordeste 0 -- -- 71
2020-06-18 14:00:00 22.7 16 Norte 31 Norte 0 -- -- 74
2020-06-18 13:00:00 24.8 13 Noroeste 27 Oeste 0 -- -- 62
2020-06-18 12:00:00 23.9 8 Noroeste 22 Noroeste 0 -- -- 70
2020-06-18 11:00:00 27.5 6 Oeste 18 Sudeste 0 -- -- 52
2020-06-18 10:00:00 26.6 6 Sudeste 18 Sudeste 0 -- -- 61
2020-06-18 09:00:00 24.1 6 Norte 14 Oeste 0 -- -- 69
2020-06-18 08:00:00 22.2 2 Este 5 Sudeste 0 -- -- 87
2020-06-18 07:00:00 18.1 0 Calma 4 Sudeste 0 -- -- 97
2020-06-18 06:00:00 18.7 0 Calma 4 Sudoeste 0 -- -- 96
2020-06-18 05:00:00 19 0 Calma 5 Nordeste 0.2 -- -- 96
2020-06-18 04:00:00 18.8 2 Oeste 6 Noroeste 0 -- -- 96
2020-06-18 03:00:00 18.7 0 Calma 3 Norte 0 -- -- 96
2020-06-18 02:00:00 18.9 0 Calma 4 Norte 0 -- -- 95
2020-06-18 01:00:00 19.2 3 Nordeste 14 Sudeste 0 -- -- 92
2020-06-18 00:00:00 20.3 4 Este 12 Sudeste 0 -- -- 88
2020-06-17 23:00:00 19.4 2 Sudoeste 10 Sudeste 0 -- -- 91
2020-06-17 22:00:00 20.3 4 Sur 10 Sudeste 0 -- -- 86
2020-06-17 21:00:00 20.7 2 Este 11 Sudeste 0 -- -- 86
2020-06-17 20:00:00 22.2 4 Este 9 Sudeste 0 -- -- 77
2020-06-17 19:00:00 22.2 4 Sudeste 15 Este 0 -- -- 76
2020-06-17 18:00:00 22 5 Este 12 Este 0 -- -- 76
2020-06-17 17:00:00 22.2 5 Nordeste 12 Norte 0 -- -- 78
2020-06-17 16:00:00 20.2 4 Este 13 Este 3.4 -- -- 91
2020-06-17 15:00:00 19 5 Este 18 Nordeste 11.4 -- -- 91
2020-06-17 14:00:00 22.4 6 Este 22 Este 0 -- -- 67
2020-06-17 13:00:00 23.9 11 Nordeste 22 Nordeste 0 -- -- 64
2020-06-17 12:00:00 24.7 7 Este 19 Nordeste 0 -- -- 61
2020-06-17 11:00:00 25.2 5 Este 15 Este 0 -- -- 55
2020-06-17 10:00:00 23.5 5 Sudeste 18 Sur 0 -- -- 61
2020-06-17 09:00:00 24.1 6 Sudeste 14 Sudeste 0 -- -- 66
2020-06-17 08:00:00 23.3 0 Calma 4 Noroeste 0 -- -- 69
2020-06-17 07:00:00 17.9 0 Calma 4 Sudoeste 0 -- -- 92
2020-06-17 06:00:00 17.5 0 Calma 5 Nordeste 0 -- -- 93
2020-06-17 05:00:00 17.3 0 Calma 3 Nordeste 0 -- -- 93
2020-06-17 04:00:00 18 0 Calma 5 Norte 0 -- -- 89
2020-06-17 03:00:00 18.8 0 Calma 6 Norte 0 -- -- 88
2020-06-17 02:00:00 18.7 3 Norte 6 Norte 0 -- -- 88
2020-06-17 01:00:00 17.9 0 Calma 7 Noroeste 0 -- -- 89
2020-06-17 00:00:00 18.2 2 Norte 5 Sudoeste 0 -- -- 88
2020-06-16 23:00:00 19.2 0 Calma 2 Nordeste 0 -- -- 83
2020-06-16 22:00:00 20.7 0 Calma 7 Este 0 -- -- 77
2020-06-16 21:00:00 21.4 3 Este 16 Norte 0 -- -- 73
2020-06-16 20:00:00 22.3 6 Nordeste 17 Norte 0 -- -- 70
2020-06-16 19:00:00 22.7 6 Este 15 Norte 0 -- -- 70
2020-06-16 18:00:00 23.4 5 Norte 17 Este 0 -- -- 67
2020-06-16 17:00:00 23 8 Este 24 Este 0 -- -- 69
2020-06-16 16:00:00 25 12 Nordeste 26 Este 0 -- -- 62
2020-06-16 15:00:00 24.7 15 Nordeste 28 Nordeste 0 -- -- 62
2020-06-16 14:00:00 24.3 11 Este 25 Nordeste 0 -- -- 62
2020-06-16 13:00:00 24.4 13 Nordeste 26 Sudeste 0 -- -- 58
2020-06-16 12:00:00 25.4 9 Nordeste 21 Nordeste 0 -- -- 54
2020-06-16 11:00:00 24.5 8 Nordeste 18 Este 0 -- -- 56
2020-06-16 10:00:00 24.5 7 Este 14 Nordeste 0 -- -- 55
2020-06-16 09:00:00 24 3 Sudeste 8 Este 0 -- -- 66
2020-06-16 08:00:00 21.3 2 Sudoeste 4 Nordeste 0 -- -- 85
2020-06-16 07:00:00 18.6 0 Calma 5 Nordeste 0 -- -- 91
2020-06-16 06:00:00 17.9 0 Calma 4 Nordeste 0 -- -- 91
2020-06-16 05:00:00 17.8 0 Calma 3 Nordeste 0 -- -- 91
2020-06-16 04:00:00 18.1 0 Calma 4 Oeste 0 -- -- 92
2020-06-16 03:00:00 18.1 0 Calma 3 Sur 0 -- -- 92
2020-06-16 02:00:00 18.2 0 Calma 4 Este 0 -- -- 91
2020-06-16 01:00:00 18.5 0 Calma 4 Nordeste 0 -- -- 90
2020-06-16 00:00:00 19 2 Nordeste 4 Norte 0 -- -- 88
2020-06-15 23:00:00 19.8 0 Calma 6 Este 0 -- -- 87
2020-06-15 22:00:00 20.8 3 Este 5 Este 0 -- -- 82
2020-06-15 21:00:00 22.3 3 Sudeste 14 Sudeste 0 -- -- 73
2020-06-15 20:00:00 24 6 Sudeste 14 Este 0 -- -- 67
2020-06-15 19:00:00 24.9 6 Este 16 Sudeste 0 -- -- 60
2020-06-15 18:00:00 25.4 9 Este 22 Sudeste 0 -- -- 60
2020-06-15 17:00:00 26.5 9 Este 18 Sudeste 0 -- -- 58
2020-06-15 16:00:00 26.5 8 Este 24 Sudeste 0 -- -- 55
2020-06-15 15:00:00 27.1 9 Este 21 Nordeste 0 -- -- 54
2020-06-15 14:00:00 25.7 8 Este 20 Este 0 -- -- 57
2020-06-15 13:00:00 25.5 9 Este 23 Este 0 -- -- 61
2020-06-15 12:00:00 26.2 9 Nordeste 18 Nordeste 0 -- -- 56
2020-06-15 11:00:00 27 6 Sudeste 16 Sudeste 0 -- -- 49
2020-06-15 10:00:00 25.3 6 Sudeste 14 Sudeste 0 -- -- 62
2020-06-15 09:00:00 25 5 Sudeste 12 Sudeste 0 -- -- 66
2020-06-15 08:00:00 21.1 0 Calma 3 Nordeste 0 -- -- 74
2020-06-15 07:00:00 15.5 0 Calma 4 Norte 0 -- -- 89
2020-06-15 06:00:00 14.9 0 Calma 4 Noroeste 0 -- -- 91
2020-06-15 05:00:00 15.1 0 Calma -- -- 0 -- -- 90
2020-06-15 04:00:00 15.4 0 Calma 3 Nordeste 0 -- -- 90
2020-06-15 03:00:00 15.9 0 Calma 4 Norte 0 -- -- 90
2020-06-15 02:00:00 16.4 2 Norte 4 Nordeste 0 -- -- 87
2020-06-15 01:00:00 17 0 Calma 3 Nordeste 0 -- -- 86
2020-06-15 00:00:00 17.8 2 Nordeste 4 Norte 0 -- -- 83
2020-06-14 23:00:00 19 0 Calma 6 Oeste 0 -- -- 77
2020-06-14 22:00:00 21.7 5 Oeste 17 Sudoeste 0 -- -- 61
2020-06-14 21:00:00 22.9 7 Sudoeste 21 Sudoeste 0 -- -- 55
2020-06-14 20:00:00 24.4 9 Sudeste 22 Este 0 -- -- 53
2020-06-14 19:00:00 24.7 7 Sudeste 16 Este 0 -- -- 59
2020-06-14 18:00:00 25.9 7 Este 17 Este 0 -- -- 54
2020-06-14 17:00:00 26.2 7 Sudeste 13 Sudeste 0 -- -- 53
2020-06-14 16:00:00 24.3 8 Nordeste 16 Nordeste 0 -- -- 58
2020-06-14 15:00:00 25.5 6 Este 19 Este 0 -- -- 54
2020-06-14 14:00:00 24.7 6 Este 15 Sudeste 0 -- -- 61
2020-06-14 13:00:00 24.4 7 Este 18 Este 0 -- -- 61
2020-06-14 12:00:00 26.3 8 Nordeste 17 Este 0 -- -- 52
2020-06-14 11:00:00 25.8 4 Nordeste 14 Sudeste 0 -- -- 51
2020-06-14 10:00:00 25.7 3 Sudeste 8 Nordeste 0 -- -- 55
2020-06-14 09:00:00 25.3 3 Sudeste 9 Sur 0 -- -- 59
2020-06-14 08:00:00 19.4 0 Calma 8 Sudeste 0 -- -- 67
2020-06-14 07:00:00 15.8 0 Calma 6 Norte 0 -- -- 74
2020-06-14 06:00:00 15.2 2 Sudoeste 6 Este 0 -- -- 76
2020-06-14 05:00:00 14.7 0 Calma 13 Norte 0 -- -- 76
2020-06-14 04:00:00 15.4 2 Nordeste 8 Norte 0 -- -- 72
2020-06-14 03:00:00 15.4 2 Noroeste 6 Sudoeste 0 -- -- 77
2020-06-14 02:00:00 16.1 3 Oeste 5 Norte 0 -- -- 71
2020-06-14 01:00:00 16.3 0 Calma 4 Norte 0 -- -- 68
2020-06-14 00:00:00 17.4 0 Calma 5 Este 0 -- -- 60
2020-06-13 23:00:00 18.6 4 Sudeste 11 Norte 0 -- -- 55
2020-06-13 22:00:00 21.5 4 Oeste 19 Oeste 0 -- -- 43
2020-06-13 21:00:00 23.9 11 Oeste 20 Oeste 0 -- -- 34
2020-06-13 20:00:00 25.2 7 Oeste 27 Oeste 0 -- -- 31
2020-06-13 19:00:00 25.4 12 Oeste 33 Oeste 0 -- -- 30
2020-06-13 18:00:00 24.9 14 Noroeste 28 Noroeste 0 -- -- 37
2020-06-13 17:00:00 26.2 10 Noroeste 27 Oeste 0 -- -- 35
2020-06-13 16:00:00 26.1 15 Oeste 33 Oeste 0 -- -- 37
2020-06-13 15:00:00 26 17 Oeste 33 Noroeste 0 -- -- 40
2020-06-13 14:00:00 25.6 17 Noroeste 35 Oeste 0 -- -- 48
2020-06-13 13:00:00 25.2 13 Noroeste 32 Oeste 0 -- -- 52
2020-06-13 12:00:00 25.2 16 Noroeste 34 Noroeste 0 -- -- 50
2020-06-13 11:00:00 24.6 19 Oeste 37 Oeste 0 -- -- 55
2020-06-13 10:00:00 25.7 12 Noroeste 22 Oeste 0 -- -- 36
2020-06-13 09:00:00 23.6 6 Norte 10 Nordeste 0 -- -- 63
2020-06-13 08:00:00 19.3 0 Calma 6 Nordeste 0 -- -- 79
2020-06-13 07:00:00 19.2 4 Noroeste 24 Sudoeste 0 -- -- 80
2020-06-13 06:00:00 19.1 8 Sudoeste 18 Oeste 0 -- -- 88
2020-06-13 05:00:00 16.2 4 Norte 9 Norte 0 -- -- 90
2020-06-13 04:00:00 16.9 2 Norte 19 Sudoeste 0 -- -- 87
2020-06-13 03:00:00 18.4 11 Sudoeste 24 Sudoeste 0 -- -- 89
2020-06-13 02:00:00 16.3 0 Calma 3 Sudeste 0 -- -- 90
2020-06-13 01:00:00 16.7 0 Calma 4 Nordeste 0 -- -- 85
2020-06-13 00:00:00 17.6 2 Norte 6 Nordeste 0 -- -- 83
2020-06-12 23:00:00 20.3 3 Norte 20 Sur 0 -- -- 72
2020-06-12 22:00:00 21.2 8 Sudoeste 24 Sudoeste 0 -- -- 71
2020-06-12 21:00:00 22 9 Sur 29 Sur 0 -- -- 69
2020-06-12 20:00:00 24.1 13 Sudoeste 28 Sudoeste 0 -- -- 61
2020-06-12 19:00:00 25.7 13 Sudoeste 32 Sur 0 -- -- 48
2020-06-12 18:00:00 27.2 13 Sudoeste 30 Sudoeste 0 -- -- 43
2020-06-12 17:00:00 27.1 13 Sudoeste 33 Oeste 0 -- -- 42
2020-06-12 16:00:00 26.9 6 Noroeste 18 Noroeste 0 -- -- 43
2020-06-12 15:00:00 26.4 6 Noroeste 22 Norte 0 -- -- 44
2020-06-12 14:00:00 27.8 8 Oeste 27 Oeste 0 -- -- 38
2020-06-12 13:00:00 26.4 18 Oeste 35 Sudoeste 0 -- -- 38
2020-06-12 12:00:00 26.5 21 Oeste 42 Oeste 0 -- -- 37
2020-06-12 11:00:00 26.5 17 Oeste 39 Oeste 0 -- -- 39
2020-06-12 10:00:00 26.7 13 Oeste 30 Oeste 0 -- -- 39
2020-06-12 09:00:00 26.2 6 Sur 23 Sur 0 -- -- 58
2020-06-12 08:00:00 23.5 11 Sur 31 Sur 0 -- -- 65
2020-06-12 07:00:00 20.4 15 Sur 31 Sudoeste 0 -- -- 78
2020-06-12 06:00:00 20.3 14 Sur 35 Sudoeste 0 -- -- 79
2020-06-12 05:00:00 20.4 16 Sur 42 Sur 0 -- -- 77
2020-06-12 04:00:00 20.5 18 Sur 45 Sur 0 -- -- 76
2020-06-12 03:00:00 20.5 14 Sudoeste 49 Sudoeste 0 -- -- 74
2020-06-12 02:00:00 20.7 15 Sudoeste 43 Sudoeste 0 -- -- 71
2020-06-12 01:00:00 20.7 13 Sudoeste 35 Sudoeste 0 -- -- 74
2020-06-12 00:00:00 20.7 9 Norte 22 Este 0 -- -- 77
2020-06-11 23:00:00 20.9 5 Noroeste 21 Oeste 0 -- -- 75
2020-06-11 22:00:00 21 3 Sudeste 26 Oeste 0 -- -- 72
2020-06-11 21:00:00 22.3 17 Sudoeste 37 Sudoeste 0 -- -- 67
2020-06-11 20:00:00 23.9 14 Sudoeste 32 Sudoeste 0 -- -- 61
2020-06-11 19:00:00 24.9 12 Oeste 31 Sudoeste 0 -- -- 60
2020-06-11 18:00:00 26.5 17 Sudoeste 35 Sur 0 -- -- 55
2020-06-11 17:00:00 27.1 13 Sudoeste 34 Sur 0 -- -- 54
2020-06-11 16:00:00 27.7 18 Sudoeste 36 Sudoeste 0 -- -- 52
2020-06-11 15:00:00 28 18 Sur 37 Sur 0 -- -- 50
2020-06-11 14:00:00 27 18 Sudoeste 40 Sudoeste 0 -- -- 50
2020-06-11 13:00:00 27.3 14 Sudoeste 33 Sur 0 -- -- 47
2020-06-11 12:00:00 25.8 11 Sur 32 Sur 0 -- -- 55
2020-06-11 11:00:00 23.4 11 Sur 28 Sudoeste 0 -- -- 65
2020-06-11 10:00:00 22.1 9 Sudoeste 22 Oeste 0 -- -- 71
2020-06-11 09:00:00 19.9 8 Sudoeste 18 Oeste 0 -- -- 78
2020-06-11 08:00:00 17.5 3 Noroeste 6 Nordeste 0 -- -- 88
2020-06-11 07:00:00 16.9 0 Calma 5 Sudeste 0 -- -- 89
2020-06-11 06:00:00 17.2 3 Noroeste 5 Norte 0 -- -- 87
2020-06-11 05:00:00 17.4 2 Oeste 6 Norte 0 -- -- 85
2020-06-11 04:00:00 17.2 3 Norte 12 Sudeste 0 -- -- 86
2020-06-11 03:00:00 17.6 3 Oeste 9 Noroeste 0 -- -- 84
2020-06-11 02:00:00 17 0 Calma 5 Oeste 0 -- -- 88
2020-06-11 01:00:00 17.3 3 Oeste 5 Oeste 0 -- -- 84
2020-06-11 00:00:00 17.3 0 Calma 5 Oeste 0 -- -- 85
2020-06-10 23:00:00 17.5 0 Calma 5 Sudoeste 0 -- -- 83
2020-06-10 22:00:00 17.7 0 Calma 2 Nordeste 0 -- -- 82
2020-06-10 21:00:00 19.7 0 Calma 9 Sur 0 -- -- 71
2020-06-10 20:00:00 20.6 5 Sur 18 Sur 0 -- -- 66
2020-06-10 19:00:00 21.9 7 Sudeste 17 Sur 0 -- -- 65
2020-06-10 18:00:00 22.3 10 Sur 25 Oeste 0 -- -- 61
2020-06-10 17:00:00 25.9 6 Sudoeste 23 Sur 0 -- -- 49
2020-06-10 16:00:00 23.3 5 Este 19 Sudeste 0 -- -- 57
2020-06-10 15:00:00 23.3 8 Este 20 Este 0 -- -- 56
2020-06-10 14:00:00 23.3 8 Este 18 Nordeste 0 -- -- 50
2020-06-10 13:00:00 24.6 5 Sudeste 13 Sudeste 0 -- -- 46
2020-06-10 12:00:00 22.3 5 Sudoeste 21 Este 0 -- -- 53
2020-06-10 11:00:00 24.3 6 Este 13 Sudeste 0 -- -- 46
2020-06-10 10:00:00 23.7 4 Este 10 Sudeste 0 -- -- 55
2020-06-10 09:00:00 20.2 4 Este 8 Sudeste 0 -- -- 63
2020-06-10 08:00:00 18.4 2 Nordeste 4 Nordeste 0 -- -- 70
2020-06-10 07:00:00 12.4 0 Calma 2 Norte 0 -- -- 92
2020-06-10 06:00:00 12.3 0 Calma 3 Norte 0 -- -- 91
2020-06-10 05:00:00 13.3 0 Calma 4 Oeste 0 -- -- 87
2020-06-10 04:00:00 13.9 0 Calma 13 Sudoeste 0 -- -- 85
2020-06-10 03:00:00 16.4 5 Sudoeste 13 Oeste 0 -- -- 70
2020-06-10 02:00:00 14.2 0 Calma 5 Sudoeste 0 -- -- 87
2020-06-10 01:00:00 14.4 0 Calma 5 Norte 0 -- -- 88
2020-06-10 00:00:00 15.1 0 Calma 7 Sudoeste 0 -- -- 84
2020-06-09 23:00:00 16.6 4 Oeste 9 Oeste 0 -- -- 77
2020-06-09 22:00:00 16.6 4 Norte 7 Norte 0 -- -- 82
2020-06-09 21:00:00 18.9 2 Nordeste 8 Nordeste 0 -- -- 73
2020-06-09 20:00:00 20.7 3 Sudeste 11 Sudeste 0 -- -- 63
2020-06-09 19:00:00 21.7 8 Sur 14 Sudeste 0 -- -- 62
2020-06-09 18:00:00 22 8 Sur 20 Sudeste 0 -- -- 61
2020-06-09 17:00:00 22.7 11 Sur 26 Sur 0 -- -- 62
2020-06-09 16:00:00 23.6 9 Sudeste 34 Sur 0 -- -- 59
2020-06-09 15:00:00 23 12 Sur 29 Sur 0 -- -- 57
2020-06-09 14:00:00 23.5 10 Norte 22 Noroeste 0 -- -- 53
2020-06-09 13:00:00 21.8 7 Este 20 Sur 0 -- -- 58
2020-06-09 12:00:00 22.8 6 Norte 17 Noroeste 0 -- -- 55
2020-06-09 11:00:00 22 4 Oeste 14 Oeste 0 -- -- 57
2020-06-09 10:00:00 20.1 9 Oeste 18 Oeste 0 -- -- 63
2020-06-09 09:00:00 22.5 0 Calma 10 Nordeste 0 -- -- 58
2020-06-09 08:00:00 21 4 Sudoeste 10 Oeste 0 -- -- 66
2020-06-09 07:00:00 13.8 3 Norte 5 Norte 0 -- -- 95
2020-06-09 06:00:00 13.9 2 Norte 6 Oeste 0 -- -- 94
2020-06-09 05:00:00 14.7 0 Calma 5 Noroeste 0 -- -- 92
2020-06-09 04:00:00 14.7 0 Calma 4 Noroeste 0 -- -- 95
2020-06-09 03:00:00 13.5 2 Norte 5 Noroeste 0 -- -- 95
2020-06-09 02:00:00 13.5 0 Calma 7 Oeste 0 -- -- 95
2020-06-09 01:00:00 14 3 Oeste 8 Oeste 0 -- -- 95
2020-06-09 00:00:00 14.6 2 Norte 9 Oeste 0 -- -- 92
2020-06-08 23:00:00 15.2 0 Calma 2 Norte 0 -- -- 91
2020-06-08 22:00:00 16.6 0 Calma 5 Nordeste 0 -- -- 86
2020-06-08 21:00:00 18.7 4 Nordeste 6 Este 0 -- -- 71
2020-06-08 20:00:00 19.5 0 Calma 5 Nordeste 0 -- -- 67
2020-06-08 19:00:00 19.2 3 Nordeste 7 Nordeste 0 -- -- 66
2020-06-08 18:00:00 18.8 4 Norte 8 Nordeste 0 -- -- 69
2020-06-08 17:00:00 18.9 3 Nordeste 12 Norte 0 -- -- 71
2020-06-08 16:00:00 19.3 6 Nordeste 16 Norte 0 -- -- 65
2020-06-08 15:00:00 19 5 Nordeste 19 Este 0 -- -- 71
2020-06-08 14:00:00 19.1 5 Norte 22 Norte 0 -- -- 73
2020-06-08 13:00:00 18.9 0 Calma 9 Nordeste 0 -- -- 74
2020-06-08 12:00:00 18.8 3 Este 15 Este 0 -- -- 70
2020-06-08 11:00:00 19.2 5 Este 14 Sudeste 0 -- -- 66
2020-06-08 10:00:00 18.9 4 Nordeste 17 Este 0 -- -- 70
2020-06-08 09:00:00 19.5 7 Este 15 Sudeste 0 -- -- 70
2020-06-08 08:00:00 18 0 Calma 4 Oeste 0 -- -- 93
2020-06-08 07:00:00 16.3 0 Calma 4 Oeste 0.2 -- -- 97
2020-06-08 06:00:00 16.1 3 Oeste 8 Oeste 0 -- -- 97
2020-06-08 05:00:00 15.9 4 Oeste 9 Sudoeste 0 -- -- 97
2020-06-08 04:00:00 16 0 Calma 7 Sudeste 0 -- -- 97
2020-06-08 03:00:00 15.9 0 Calma 14 Nordeste 0.2 -- -- 96
2020-06-08 02:00:00 15.8 6 Este 15 Este 5 -- -- 95
2020-06-08 01:00:00 16.7 4 Sudoeste 9 Oeste 5.6 -- -- 95
2020-06-08 00:00:00 17.4 5 Oeste 8 Oeste 0.6 -- -- 93
2020-06-07 23:00:00 18.1 0 Calma 9 Este 0.4 -- -- 90
2020-06-07 22:00:00 19.1 5 Nordeste 10 Este 0 -- -- 80
2020-06-07 21:00:00 19.4 0 Calma 9 Este 0 -- -- 82
2020-06-07 20:00:00 19.7 3 Nordeste 13 Nordeste 0 -- -- 81
2020-06-07 19:00:00 19.5 7 Este 18 Este 0 -- -- 83
2020-06-07 18:00:00 19.9 6 Nordeste 21 Este 0 -- -- 86
2020-06-07 17:00:00 20.7 8 Este 16 Este 0 -- -- 86
2020-06-07 16:00:00 19.2 2 Norte 28 Norte 28.6 -- -- 97
2020-06-07 15:00:00 19.6 11 Este 32 Este 1.2 -- -- 89
2020-06-07 14:00:00 22.7 8 Nordeste 22 Nordeste 0 -- -- 77
2020-06-07 13:00:00 21.6 13 Norte 29 Norte 0 -- -- 82
2020-06-07 12:00:00 23.6 13 Norte 20 Norte 0 -- -- 75
2020-06-07 11:00:00 24.2 9 Nordeste 17 Nordeste 0 -- -- 72
2020-06-07 10:00:00 22.1 10 Nordeste 19 Norte 0.2 -- -- 88
2020-06-07 09:00:00 21.1 6 Oeste 14 Oeste 0.8 -- -- 90
2020-06-07 08:00:00 20.4 8 Oeste 20 Oeste 0.4 -- -- 92
2020-06-07 07:00:00 20 5 Sudeste 23 Oeste 0 -- -- 88
2020-06-07 06:00:00 19.2 3 Noroeste 10 Sudeste 0 -- -- 84
2020-06-07 05:00:00 17.9 3 Nordeste 7 Norte 0 -- -- 88
2020-06-07 04:00:00 17.8 3 Oeste 7 Norte 0 -- -- 89
2020-06-07 03:00:00 17.6 0 Calma 6 Noroeste 0 -- -- 91
2020-06-07 02:00:00 18.6 3 Noroeste 8 Norte 0 -- -- 88
2020-06-07 01:00:00 18.9 0 Calma 8 Oeste 0 -- -- 84
2020-06-07 00:00:00 20.9 5 Sudoeste 13 Sudoeste 0 -- -- 77
2020-06-06 23:00:00 21.5 6 Nordeste 16 Sur 0 -- -- 73
2020-06-06 22:00:00 22.5 6 Sur 18 Sudeste 0 -- -- 68
2020-06-06 21:00:00 24.2 8 Sudoeste 33 Sudoeste 0 -- -- 61
2020-06-06 20:00:00 26.8 14 Sudoeste 36 Oeste 0 -- -- 49
2020-06-06 19:00:00 28.6 17 Sudoeste 36 Sudoeste 0 -- -- 41
2020-06-06 18:00:00 29.5 17 Sudoeste 37 Sudoeste 0 -- -- 38
2020-06-06 17:00:00 30.3 8 Norte 31 Norte 0 -- -- 43
2020-06-06 16:00:00 29.1 19 Norte 31 Norte 0 -- -- 50
2020-06-06 15:00:00 28.1 15 Norte 26 Norte 0 -- -- 53
2020-06-06 14:00:00 27.5 19 Norte 29 Nordeste 0 -- -- 54
2020-06-06 13:00:00 29.2 13 Norte 23 Nordeste 0 -- -- 48
2020-06-06 12:00:00 29.9 6 Sudoeste 22 Sudoeste 0 -- -- 47
2020-06-06 11:00:00 27.6 12 Sur 27 Sur 0 -- -- 55
2020-06-06 10:00:00 26.1 11 Sudoeste 23 Sudoeste 0 -- -- 58
2020-06-06 09:00:00 22.7 4 Norte 9 Nordeste 0 -- -- 59
2020-06-06 08:00:00 20.9 0 Calma 3 Nordeste 0 -- -- 59
2020-06-06 07:00:00 14 0 Calma 5 Sudeste 0 -- -- 83
2020-06-06 06:00:00 13.7 0 Calma 5 Sudeste 0 -- -- 83
2020-06-06 05:00:00 14.1 0 Calma 4 Norte 0 -- -- 81
2020-06-06 04:00:00 14.3 0 Calma 3 Oeste 0 -- -- 81
2020-06-06 03:00:00 14.9 0 Calma 3 Nordeste 0 -- -- 81
2020-06-06 02:00:00 15.5 0 Calma 4 Norte 0 -- -- 80
2020-06-06 01:00:00 16.2 0 Calma 4 Norte 0 -- -- 77
2020-06-06 00:00:00 16.9 2 Norte 4 Norte 0 -- -- 73
2020-06-05 23:00:00 17.9 0 Calma 12 Sudeste 0 -- -- 69
2020-06-05 22:00:00 18.9 2 Este 6 Este 0 -- -- 63
2020-06-05 21:00:00 21.5 4 Sur 12 Oeste 0 -- -- 53
2020-06-05 20:00:00 23 4 Oeste 19 Oeste 0 -- -- 48
2020-06-05 19:00:00 23.3 8 Noroeste 24 Oeste 0 -- -- 42
2020-06-05 18:00:00 23.9 14 Oeste 33 Oeste 0 -- -- 42
2020-06-05 17:00:00 24.2 15 Noroeste 42 Sudoeste 0 -- -- 41
2020-06-05 16:00:00 24.3 18 Noroeste 39 Noroeste 0 -- -- 38
2020-06-05 15:00:00 23.7 18 Oeste 42 Sudoeste 0 -- -- 44
2020-06-05 14:00:00 23.4 12 Oeste 40 Oeste 0 -- -- 46
2020-06-05 13:00:00 22.6 18 Oeste 38 Oeste 0 -- -- 47
2020-06-05 12:00:00 22.7 16 Oeste 46 Oeste 0 -- -- 47
2020-06-05 11:00:00 22.3 19 Oeste 47 Oeste 0 -- -- 49
2020-06-05 10:00:00 21.3 22 Oeste 48 Oeste 0 -- -- 57
2020-06-05 09:00:00 21.1 15 Oeste 36 Oeste 0 -- -- 58
2020-06-05 08:00:00 20.7 15 Oeste 36 Oeste 0 -- -- 60
2020-06-05 07:00:00 19.3 14 Oeste 36 Oeste 0 -- -- 65
2020-06-05 06:00:00 19.4 21 Oeste 40 Oeste 0 -- -- 65
2020-06-05 05:00:00 19.3 15 Oeste 32 Oeste 0 -- -- 63
2020-06-05 04:00:00 19.7 15 Oeste 33 Oeste 0 -- -- 61
2020-06-05 03:00:00 20.1 11 Oeste 37 Oeste 0 -- -- 55
2020-06-05 02:00:00 20.9 14 Oeste 35 Oeste 0 -- -- 52
2020-06-05 01:00:00 21 13 Oeste 33 Oeste 0 -- -- 61
2020-06-05 00:00:00 20.4 7 Oeste 21 Oeste 0 -- -- 54